Flugplatz Lauf-Lillinghof

Für EDQI sind keine METAR/TAF Berichte vorhanden.
Es werden die Flugwettermeldungen vom Flugplatz Nuremberg in 19 km Entfernung angezeigt.

Bericht für EDDN

vom 17.07. um 23:20 UTC

variable Windrichtung mit 1 kt

Sichtweite 10 km oder mehr

gute Sicht, keine Wolken < 5000 ft, keine CB, keine Wettererscheinungen (CAVOK)

Temperatur 14.0°C

Taupunkt 10.0°C

Luftfeuchtigkeit 77%

Luftdruck 1013 hPa

EDDN 172320Z VRB01KT CAVOK 14/10 Q1013

Prognose für EDDN

vom 17.07. um 00:00 UTC

Zwischen 00:00 UTC und 00:00 UTC

variable Windrichtung mit 2 kt

Sichtweite 10 km oder mehr

keine signifikanten Wettererscheinungen

keine Wolken


Zwischen 00:00 und 00:00 UTC übergehend zu

Wind 6 kt aus 280°

Sichtweite 10 km oder mehr

keine signifikanten Wettererscheinungen

keine Wolken


Zwischen 00:00 und 00:00 UTC übergehend zu

variable Windrichtung mit 3 kt

Sichtweite 10 km oder mehr

keine signifikanten Wettererscheinungen

keine Wolken


Zwischen 00:00 UTC und 00:00 UTC zeitweise mit einer Wahrscheinlichkeit von 30%

Wind 10 kt aus 270°

Regenschauer

aufgebrochene Bewölkung in 6000 ft

TAF EDDN 172300Z 1800/1824 VRB02KT CAVOK BECMG 1810/1812 28006KT BECMG 1817/1819 VRB03KT PROB30 TEMPO 1821/1824 27010KT SHRA BKN060CB
Impressum